map of TSR home
TSR - Airport
Location
City:  Timisoara, Timisdepartment, Romania
Name:Traian Vuia International Airport
Old (Alt.):Giarmata Airport
ICAO:LRTR
IATA:TSR

Details
Type:Airport (Aerodrome, Airfield)
Use:Public/Civil, Military, International (customs port of entry)
Latitude:4548'35"N (45.809861)
Longitude:2120'16"E (21.337861)
Datum:WGS 1984
Elevation:348 ft (106 m)
Variation:5.04E (WMM2015 magnetic declination)
0.11 annual change
Runways:1
Longest:11483 × 148 ft (3500 × 45 m), paved

Time
Time Zone:UTC+2 (DST+3)
Local Time:

Weather
METAR:LRTR 181230Z 29009KT 9999 FEW040 OVC045 24/17 Q1007
TAF:LRTR 181100Z 1812/1912 30010KT 9999 BKN040
TEMPO 1812/1816 SCT035CB
BECMG 1900/1902 BKN015 OVC035
TEMPO 1903/1908 5000 -SHRA BKN010 SCT035CB
BECMG 1908/1910 BKN035

Related Locations
Nearby:
Farthest:CHT: 11556 mi / 18598 km
Waitangi [Tuuta], CIT, NZ

Find:

   beyond  
but within

Other Information
Maps:
NOTAMs:
Links:
Sources:

  
  • flag of Romania
  

Sectional Chart

Flight Planning
at skyvector.com

Satellite Image

Google Maps Satellite view

 

Copyright © 2004-2018 Karl L. Swartz. All rights reserved.
The Great Circle Mapper name and logo are trademarks of the Great Circle Mapper.
All other trademarks mentioned herein belong to their respective owners.
Please see credits for attibutions and further copyright information.

  Follow gcmap on Facebook Follow gcmap on Twitter Follow gcmap on Google+ GCmap on LinkedIn

hCard Microformat

Geo Microformat